Time;durP1;ratioP1;P1;durP2;ratioP2;P2;SDS_P1;SDS_P2;PMS_P1;PMS_P2;Temp;Humidity;BMP_temperature;BMP_pressure;BME280_temperature;BME280_humidity;BME280_pressure;Samples;Min_cycle;Max_cycle;Signal;HPM_P1;HPM_P2
2022/09/18 00:00:43;;;;;;;7.30;1.33;;;;;;;;;;5072560;28;20433;-66
2022/09/18 00:03:09;;;;;;;10.75;1.20;;;;;;;;;;5088505;22;20055;-65
2022/09/18 00:05:35;;;;;;;10.20;1.20;;;;;;;;;;5068144;28;20052;-65
2022/09/18 00:08:01;;;;;;;4.95;1.23;;;;;;;;;;5063059;28;20048;-65
2022/09/18 00:10:27;;;;;;;10.18;1.30;;;;;;;;;;5068336;28;20047;-65
2022/09/18 00:12:54;;;;;;;8.60;1.23;;;;;;;;;;5054191;28;20089;-65
2022/09/18 00:15:20;;;;;;;11.27;1.45;;;;;;;;;;5054215;28;20044;-64
2022/09/18 00:17:45;;;;;;;5.28;0.90;;;;;;;;;;5053659;28;20041;-65
2022/09/18 00:20:12;;;;;;;5.68;1.42;;;;;;;;;;5052774;28;20037;-65
2022/09/18 00:22:39;;;;;;;6.85;1.25;;;;;;;;;;5035116;28;20040;-65
2022/09/18 00:25:05;;;;;;;8.00;1.40;;;;;;;;;;5054259;28;20103;-65
2022/09/18 00:27:31;;;;;;;12.18;1.45;;;;;;;;;;5051617;28;20045;-65
2022/09/18 00:29:57;;;;;;;4.85;0.80;;;;;;;;;;5055012;28;20402;-65
2022/09/18 00:32:23;;;;;;;8.98;1.30;;;;;;;;;;5054604;28;20033;-65
2022/09/18 00:34:50;;;;;;;9.77;1.30;;;;;;;;;;5059039;28;20051;-65
2022/09/18 00:37:16;;;;;;;6.97;1.30;;;;;;;;;;5052424;28;20414;-64
2022/09/18 00:39:42;;;;;;;6.38;1.20;;;;;;;;;;5052470;28;20490;-65
2022/09/18 00:42:11;;;;;;;4.53;1.00;;;;;;;;;;5053653;28;20041;-65
2022/09/18 00:44:40;;;;;;;10.85;1.77;;;;;;;;;;5053629;28;20041;-65
2022/09/18 00:47:09;;;;;;;4.53;1.13;;;;;;;;;;5052955;28;20041;-64
2022/09/18 00:49:36;;;;;;;6.85;1.20;;;;;;;;;;5028776;28;20041;-65
2022/09/18 00:52:03;;;;;;;11.38;1.38;;;;;;;;;;5052089;28;20048;-65
2022/09/18 00:54:43;;;;;;;8.32;1.38;;;;;;;;;;5057371;28;20483;-65
2022/09/18 00:57:20;;;;;;;8.05;1.40;;;;;;;;;;5064219;28;20037;-65
2022/09/18 00:59:48;;;;;;;9.55;1.50;;;;;;;;;;5047270;28;20116;-65
2022/09/18 01:02:14;;;;;;;9.00;1.33;;;;;;;;;;5052879;28;20046;-65
2022/09/18 01:04:40;;;;;;;11.60;1.80;;;;;;;;;;5051791;28;20490;-65
2022/09/18 01:07:06;;;;;;;8.48;1.45;;;;;;;;;;5049499;28;20040;-65
2022/09/18 01:09:51;;;;;;;11.27;1.67;;;;;;;;;;5056688;28;20532;-65
2022/09/18 01:12:35;;;;;;;8.57;1.95;;;;;;;;;;5034754;28;20052;-64
2022/09/18 01:15:05;;;;;;;11.65;1.60;;;;;;;;;;5031235;28;20036;-65
2022/09/18 01:17:37;;;;;;;9.45;1.50;;;;;;;;;;5043455;28;20095;-65
2022/09/18 01:20:22;;;;;;;8.27;1.40;;;;;;;;;;5052192;28;20083;-65
2022/09/18 01:23:06;;;;;;;10.55;1.77;;;;;;;;;;5046650;28;20036;-65
2022/09/18 01:25:36;;;;;;;9.20;1.45;;;;;;;;;;5044111;28;20398;-65
2022/09/18 01:28:08;;;;;;;11.60;1.92;;;;;;;;;;5052118;28;20033;-65
2022/09/18 01:30:37;;;;;;;11.90;1.80;;;;;;;;;;5036765;28;20045;-65
2022/09/18 01:33:07;;;;;;;6.53;1.50;;;;;;;;;;5052786;28;20040;-65
2022/09/18 01:35:43;;;;;;;11.23;1.58;;;;;;;;;;5051529;28;20045;-65
2022/09/18 01:38:15;;;;;;;10.10;1.55;;;;;;;;;;5050607;28;20047;-65
2022/09/18 01:40:45;;;;;;;11.73;1.55;;;;;;;;;;5052334;28;20044;-65
2022/09/18 01:43:14;;;;;;;10.20;2.45;;;;;;;;;;5056925;28;20032;-65
2022/09/18 01:45:47;;;;;;;8.10;1.40;;;;;;;;;;5049803;28;20132;-65
2022/09/18 01:48:19;;;;;;;7.72;1.40;;;;;;;;;;5052608;28;20037;-65
2022/09/18 01:50:48;;;;;;;6.55;1.40;;;;;;;;;;5055410;28;20041;-65
2022/09/18 01:53:26;;;;;;;8.35;1.40;;;;;;;;;;5050700;28;20051;-65
2022/09/18 01:56:14;;;;;;;9.93;1.58;;;;;;;;;;5052233;28;20058;-65
2022/09/18 01:58:40;;;;;;;7.80;1.48;;;;;;;;;;5050083;28;20048;-65
2022/09/18 02:01:11;;;;;;;7.38;1.33;;;;;;;;;;5052048;28;20486;-65
2022/09/18 02:03:44;;;;;;;4.97;1.10;;;;;;;;;;5055067;28;20521;-65
2022/09/18 02:06:26;;;;;;;9.27;1.45;;;;;;;;;;5051112;28;20051;-65
2022/09/18 02:08:53;;;;;;;8.88;1.20;;;;;;;;;;5034416;28;21428;-65
2022/09/18 02:11:20;;;;;;;9.07;1.35;;;;;;;;;;5053620;28;20051;-65
2022/09/18 02:13:53;;;;;;;6.60;1.20;;;;;;;;;;5037593;28;20076;-65
2022/09/18 02:16:25;;;;;;;6.35;1.60;;;;;;;;;;5050200;28;20120;-65
2022/09/18 02:18:53;;;;;;;10.98;1.60;;;;;;;;;;5052398;28;20051;-65
2022/09/18 02:21:22;;;;;;;9.90;1.52;;;;;;;;;;5051815;28;20036;-65
2022/09/18 02:23:48;;;;;;;9.38;1.65;;;;;;;;;;5054926;28;20037;-65
2022/09/18 02:26:14;;;;;;;7.25;1.02;;;;;;;;;;5034062;28;20568;-65
2022/09/18 02:28:41;;;;;;;14.00;2.40;;;;;;;;;;5052021;28;20066;-65
2022/09/18 02:31:07;;;;;;;8.30;1.50;;;;;;;;;;5053903;28;20382;-65
2022/09/18 02:33:34;;;;;;;10.32;1.52;;;;;;;;;;5036989;28;20045;-65
2022/09/18 02:36:03;;;;;;;10.52;1.60;;;;;;;;;;5051279;28;20049;-65
2022/09/18 02:38:35;;;;;;;8.98;1.70;;;;;;;;;;5034083;28;20053;-65
2022/09/18 02:41:04;;;;;;;8.60;1.35;;;;;;;;;;5029179;28;20051;-65
2022/09/18 02:43:48;;;;;;;11.63;1.35;;;;;;;;;;5050771;28;20083;-65
2022/09/18 02:46:35;;;;;;;11.15;1.65;;;;;;;;;;5057997;28;20043;-64
2022/09/18 02:49:12;;;;;;;8.88;1.60;;;;;;;;;;5028907;28;20045;-65
2022/09/18 02:51:44;;;;;;;8.75;1.35;;;;;;;;;;5035940;28;20123;-65
2022/09/18 02:54:20;;;;;;;10.85;1.27;;;;;;;;;;5050680;28;20037;-65
2022/09/18 02:56:49;;;;;;;7.38;1.25;;;;;;;;;;5051220;28;20123;-65
2022/09/18 02:59:24;;;;;;;7.63;1.67;;;;;;;;;;5053775;28;20561;-65
2022/09/18 03:01:51;;;;;;;12.00;1.88;;;;;;;;;;5052005;28;20380;-64
2022/09/18 03:04:22;;;;;;;7.25;1.27;;;;;;;;;;5030796;28;20041;-65
2022/09/18 03:06:48;;;;;;;9.27;1.50;;;;;;;;;;5051198;28;20045;-64
2022/09/18 03:09:17;;;;;;;8.75;1.38;;;;;;;;;;5050651;28;20086;-65
2022/09/18 03:11:43;;;;;;;6.30;1.40;;;;;;;;;;5051880;28;20103;-65
2022/09/18 03:14:09;;;;;;;6.60;1.15;;;;;;;;;;5049013;28;20119;-65
2022/09/18 03:16:35;;;;;;;8.65;1.50;;;;;;;;;;5050119;28;20045;-65
2022/09/18 03:19:02;;;;;;;7.22;1.13;;;;;;;;;;5054582;28;20029;-65
2022/09/18 03:21:28;;;;;;;8.98;1.50;;;;;;;;;;5050946;28;20090;-65
2022/09/18 03:23:54;;;;;;;8.70;1.40;;;;;;;;;;5050591;28;20082;-64
2022/09/18 03:26:20;;;;;;;7.03;1.25;;;;;;;;;;5051176;28;20548;-65
2022/09/18 03:28:46;;;;;;;7.32;1.30;;;;;;;;;;5047500;28;20048;-65
2022/09/18 03:31:12;;;;;;;8.35;1.20;;;;;;;;;;5041324;28;20044;-65
2022/09/18 03:33:38;;;;;;;6.15;1.10;;;;;;;;;;5050111;28;20076;-65
2022/09/18 03:36:05;;;;;;;5.40;1.27;;;;;;;;;;5050672;28;20139;-65
2022/09/18 03:38:31;;;;;;;8.88;1.25;;;;;;;;;;5050642;28;20037;-64
2022/09/18 03:40:58;;;;;;;8.10;1.33;;;;;;;;;;5055073;28;20033;-65
2022/09/18 03:43:25;;;;;;;5.88;0.88;;;;;;;;;;5057745;28;20069;-65
2022/09/18 03:45:51;;;;;;;8.43;1.10;;;;;;;;;;5049910;28;20040;-65
2022/09/18 03:48:19;;;;;;;8.73;1.20;;;;;;;;;;5045352;28;20283;-64
2022/09/18 03:50:45;;;;;;;10.45;1.20;;;;;;;;;;5050762;28;20458;-65
2022/09/18 03:53:11;;;;;;;10.93;1.17;;;;;;;;;;5049637;28;20033;-65
2022/09/18 03:55:37;;;;;;;7.32;1.08;;;;;;;;;;5050122;28;20048;-65
2022/09/18 03:58:03;;;;;;;11.18;1.33;;;;;;;;;;5050240;28;20079;-65
2022/09/18 04:00:29;;;;;;;10.55;1.50;;;;;;;;;;5050588;28;20040;-64
2022/09/18 04:02:55;;;;;;;8.80;1.20;;;;;;;;;;5033371;28;20048;-65
2022/09/18 04:05:21;;;;;;;6.28;1.00;;;;;;;;;;5029092;28;20041;-65
2022/09/18 04:07:47;;;;;;;5.75;1.60;;;;;;;;;;5041043;28;20041;-65
2022/09/18 04:10:13;;;;;;;5.55;1.10;;;;;;;;;;5038699;28;20037;-65
2022/09/18 04:12:39;;;;;;;5.15;0.88;;;;;;;;;;5049789;28;20436;-65
2022/09/18 04:15:05;;;;;;;7.90;1.08;;;;;;;;;;5050934;28;20502;-65
2022/09/18 04:17:31;;;;;;;5.78;1.00;;;;;;;;;;5035306;28;20067;-65
2022/09/18 04:19:57;;;;;;;7.45;1.00;;;;;;;;;;5052365;28;20491;-65
2022/09/18 04:22:23;;;;;;;6.43;0.82;;;;;;;;;;5054336;28;20044;-65
2022/09/18 04:24:49;;;;;;;8.68;1.23;;;;;;;;;;5056204;28;20469;-65
2022/09/18 04:27:16;;;;;;;4.35;1.27;;;;;;;;;;5035896;28;20132;-65
2022/09/18 04:29:42;;;;;;;5.97;0.85;;;;;;;;;;5042124;28;20043;-65
2022/09/18 04:32:08;;;;;;;7.13;0.82;;;;;;;;;;5047910;28;20124;-65
2022/09/18 04:34:34;;;;;;;5.13;1.05;;;;;;;;;;5051892;28;20033;-65
2022/09/18 04:37:00;;;;;;;6.68;0.90;;;;;;;;;;5043169;28;20045;-65
2022/09/18 04:39:27;;;;;;;4.95;1.00;;;;;;;;;;5059474;28;20119;-65
2022/09/18 04:41:53;;;;;;;6.97;0.98;;;;;;;;;;5053669;28;20558;-65
2022/09/18 04:44:19;;;;;;;6.80;1.20;;;;;;;;;;5052708;28;20060;-65
2022/09/18 04:46:45;;;;;;;7.18;1.10;;;;;;;;;;5053636;28;20080;-64
2022/09/18 04:49:11;;;;;;;7.43;1.15;;;;;;;;;;5053683;28;20052;-65
2022/09/18 04:51:37;;;;;;;8.02;1.20;;;;;;;;;;5053194;28;20044;-65
2022/09/18 04:54:04;;;;;;;6.30;0.80;;;;;;;;;;5054473;28;20048;-64
2022/09/18 04:56:30;;;;;;;5.00;0.82;;;;;;;;;;5053441;28;20041;-65
2022/09/18 04:58:56;;;;;;;6.07;0.95;;;;;;;;;;5055286;28;20040;-65
2022/09/18 05:01:22;;;;;;;8.95;1.42;;;;;;;;;;5051810;28;20029;-65
2022/09/18 05:03:48;;;;;;;8.65;1.10;;;;;;;;;;5053702;28;20123;-65
2022/09/18 05:06:14;;;;;;;4.85;1.10;;;;;;;;;;5055401;28;20501;-64
2022/09/18 05:08:40;;;;;;;6.07;1.05;;;;;;;;;;5045350;28;20124;-65
2022/09/18 05:11:06;;;;;;;8.82;1.27;;;;;;;;;;5056572;28;20076;-65
2022/09/18 05:13:32;;;;;;;8.88;1.23;;;;;;;;;;5051157;28;20063;-64
2022/09/18 05:15:58;;;;;;;4.45;0.90;;;;;;;;;;5050817;28;20123;-65
2022/09/18 05:18:24;;;;;;;8.13;1.05;;;;;;;;;;5052760;28;20568;-65
2022/09/18 05:20:50;;;;;;;6.97;1.02;;;;;;;;;;5045964;28;20053;-65
2022/09/18 05:23:16;;;;;;;5.80;1.00;;;;;;;;;;5051381;28;20041;-65
2022/09/18 05:25:42;;;;;;;4.93;0.90;;;;;;;;;;5051602;28;20047;-65
2022/09/18 05:28:10;;;;;;;7.13;0.98;;;;;;;;;;5053009;28;20051;-65
2022/09/18 05:30:36;;;;;;;6.95;1.17;;;;;;;;;;5051016;28;20048;-65
2022/09/18 05:33:04;;;;;;;4.68;0.88;;;;;;;;;;5035505;28;20108;-64
2022/09/18 05:35:31;;;;;;;7.93;1.20;;;;;;;;;;5050479;28;20049;-64
2022/09/18 05:37:57;;;;;;;5.30;1.00;;;;;;;;;;5052700;28;20114;-64
2022/09/18 05:40:24;;;;;;;5.95;1.50;;;;;;;;;;5052741;28;20048;-65
2022/09/18 05:42:54;;;;;;;4.70;1.10;;;;;;;;;;5051723;28;20049;-65
2022/09/18 05:45:20;;;;;;;8.68;1.08;;;;;;;;;;5050672;28;20055;-64
2022/09/18 05:47:54;;;;;;;6.63;1.05;;;;;;;;;;5052632;28;20051;-64
2022/09/18 05:50:20;;;;;;;6.90;1.17;;;;;;;;;;5050028;28;20445;-65
2022/09/18 05:52:46;;;;;;;5.28;1.00;;;;;;;;;;5049486;28;20112;-65
2022/09/18 05:55:12;;;;;;;5.22;1.05;;;;;;;;;;5039326;28;20077;-65
2022/09/18 05:57:38;;;;;;;9.05;0.90;;;;;;;;;;5052305;28;20041;-64
2022/09/18 06:00:05;;;;;;;5.03;0.95;;;;;;;;;;5054944;28;20052;-65
2022/09/18 06:02:31;;;;;;;4.10;1.00;;;;;;;;;;5034543;28;20139;-65
2022/09/18 06:04:57;;;;;;;9.60;1.40;;;;;;;;;;5087895;22;20541;-65
2022/09/18 06:07:23;;;;;;;3.65;1.05;;;;;;;;;;5073478;28;20041;-65
2022/09/18 06:09:49;;;;;;;6.43;1.23;;;;;;;;;;5089279;28;20059;-63
2022/09/18 06:12:15;;;;;;;6.22;0.98;;;;;;;;;;5092164;28;20092;-63
2022/09/18 06:14:41;;;;;;;6.05;1.33;;;;;;;;;;5085070;28;20048;-63
2022/09/18 06:17:07;;;;;;;3.85;1.00;;;;;;;;;;5071481;28;20123;-64
2022/09/18 06:19:34;;;;;;;4.72;0.75;;;;;;;;;;5070730;28;20079;-63
2022/09/18 06:22:00;;;;;;;5.53;0.90;;;;;;;;;;5069601;28;20581;-63
2022/09/18 06:24:25;;;;;;;6.75;0.90;;;;;;;;;;5075888;28;20119;-64
2022/09/18 06:26:51;;;;;;;4.88;0.93;;;;;;;;;;5071551;28;20037;-64
2022/09/18 06:29:17;;;;;;;5.55;0.95;;;;;;;;;;5075563;28;20036;-64
2022/09/18 06:31:43;;;;;;;4.63;0.80;;;;;;;;;;5071519;28;20036;-64
2022/09/18 06:34:09;;;;;;;3.53;0.88;;;;;;;;;;5075557;28;20039;-64
2022/09/18 06:36:35;;;;;;;5.95;0.90;;;;;;;;;;5066548;28;20048;-64
2022/09/18 06:39:01;;;;;;;4.95;1.05;;;;;;;;;;5070564;28;20043;-64
2022/09/18 06:41:27;;;;;;;6.63;0.90;;;;;;;;;;5074643;28;20064;-65
2022/09/18 06:43:53;;;;;;;2.88;0.93;;;;;;;;;;5072125;28;20038;-65
2022/09/18 06:46:19;;;;;;;5.05;0.75;;;;;;;;;;5073398;28;20405;-65
2022/09/18 06:48:48;;;;;;;5.93;0.90;;;;;;;;;;5071413;28;20131;-65
2022/09/18 06:51:14;;;;;;;5.85;0.93;;;;;;;;;;5071016;28;20098;-65
2022/09/18 06:53:40;;;;;;;7.10;1.30;;;;;;;;;;5069871;28;20044;-65
2022/09/18 06:56:06;;;;;;;6.60;1.10;;;;;;;;;;5073967;28;20044;-65
2022/09/18 06:58:32;;;;;;;8.73;0.80;;;;;;;;;;5072017;28;20062;-65
2022/09/18 07:01:01;;;;;;;7.47;0.80;;;;;;;;;;5067653;28;20032;-66
2022/09/18 07:03:27;;;;;;;5.03;0.60;;;;;;;;;;5068850;28;20090;-66
2022/09/18 07:05:53;;;;;;;3.05;0.70;;;;;;;;;;5070413;28;20040;-66
2022/09/18 07:08:19;;;;;;;4.63;1.00;;;;;;;;;;5067491;28;20071;-66
2022/09/18 07:10:45;;;;;;;1.73;0.73;;;;;;;;;;5071425;28;20094;-66
2022/09/18 07:13:11;;;;;;;4.30;1.05;;;;;;;;;;5077792;28;20046;-66
2022/09/18 07:15:37;;;;;;;7.45;1.10;;;;;;;;;;5069140;28;20041;-66
2022/09/18 07:18:05;;;;;;;5.95;0.73;;;;;;;;;;5065505;28;20044;-66
2022/09/18 07:20:32;;;;;;;5.85;0.93;;;;;;;;;;5059271;28;20396;-65
2022/09/18 07:22:59;;;;;;;3.63;0.80;;;;;;;;;;5063617;28;20112;-65
2022/09/18 07:25:26;;;;;;;3.53;0.90;;;;;;;;;;5067780;28;20044;-66
2022/09/18 07:27:52;;;;;;;5.38;1.05;;;;;;;;;;5067797;28;20050;-65
2022/09/18 07:30:19;;;;;;;9.27;0.95;;;;;;;;;;5069784;28;20041;-65
2022/09/18 07:32:45;;;;;;;3.75;0.60;;;;;;;;;;5062579;28;20132;-66
2022/09/18 07:35:12;;;;;;;5.40;0.80;;;;;;;;;;5070690;28;20170;-66
2022/09/18 07:37:38;;;;;;;4.72;1.05;;;;;;;;;;5066151;28;20055;-65
2022/09/18 07:40:05;;;;;;;5.60;1.13;;;;;;;;;;5074108;28;20028;-66
2022/09/18 07:42:31;;;;;;;5.35;1.00;;;;;;;;;;5069208;28;20047;-65
2022/09/18 07:44:57;;;;;;;6.70;1.02;;;;;;;;;;5074202;28;20044;-66
2022/09/18 07:47:24;;;;;;;6.63;1.20;;;;;;;;;;5070477;28;20123;-66
2022/09/18 07:49:50;;;;;;;7.78;1.25;;;;;;;;;;5074728;28;21235;-66
2022/09/18 07:52:16;;;;;;;6.38;1.10;;;;;;;;;;5070201;28;20033;-66
2022/09/18 07:54:43;;;;;;;6.75;1.33;;;;;;;;;;5067550;28;20032;-66
2022/09/18 07:57:09;;;;;;;5.55;1.05;;;;;;;;;;5074279;28;20114;-66
2022/09/18 07:59:35;;;;;;;5.28;0.90;;;;;;;;;;5073632;28;20453;-65
2022/09/18 08:02:01;;;;;;;3.60;0.88;;;;;;;;;;5074928;28;20044;-66
2022/09/18 08:04:27;;;;;;;3.90;0.80;;;;;;;;;;5076911;28;20041;-65
2022/09/18 08:06:54;;;;;;;4.88;0.70;;;;;;;;;;5074717;28;20048;-65
2022/09/18 08:09:20;;;;;;;4.40;0.98;;;;;;;;;;5066329;28;20398;-64
2022/09/18 08:11:46;;;;;;;5.15;0.90;;;;;;;;;;5069493;28;20454;-64
2022/09/18 08:14:12;;;;;;;3.58;1.00;;;;;;;;;;5085735;28;20082;-65
2022/09/18 08:16:38;;;;;;;3.72;0.70;;;;;;;;;;5073411;28;20082;-64
2022/09/18 08:19:04;;;;;;;5.40;0.95;;;;;;;;;;5072170;28;20405;-64
2022/09/18 08:21:30;;;;;;;5.50;0.70;;;;;;;;;;5073340;28;20040;-64
2022/09/18 08:23:56;;;;;;;2.15;0.65;;;;;;;;;;5075879;28;20041;-64
2022/09/18 08:26:23;;;;;;;4.75;0.88;;;;;;;;;;5072990;28;20045;-64
2022/09/18 08:28:49;;;;;;;7.43;0.98;;;;;;;;;;5073666;28;20094;-64
2022/09/18 08:31:15;;;;;;;4.15;0.95;;;;;;;;;;5073513;28;20493;-65
2022/09/18 08:33:41;;;;;;;3.13;0.75;;;;;;;;;;5076617;28;20043;-65
2022/09/18 08:36:07;;;;;;;3.65;0.68;;;;;;;;;;5070676;28;20047;-65
2022/09/18 08:38:33;;;;;;;6.00;0.80;;;;;;;;;;5069396;28;20548;-65
2022/09/18 08:41:26;;;;;;;2.65;0.80;;;;;;;;;;5071901;28;20390;-64
2022/09/18 08:43:55;;;;;;;4.00;0.77;;;;;;;;;;5055050;28;20044;-64
2022/09/18 08:46:39;;;;;;;5.03;0.57;;;;;;;;;;5073982;28;20071;-64
2022/09/18 08:49:12;;;;;;;3.92;0.70;;;;;;;;;;5075015;28;20493;-65
2022/09/18 08:51:43;;;;;;;4.90;0.70;;;;;;;;;;5079254;28;20044;-65
2022/09/18 08:54:19;;;;;;;6.15;0.98;;;;;;;;;;5074535;28;20093;-65
2022/09/18 08:56:45;;;;;;;7.93;1.27;;;;;;;;;;5073720;28;20039;-65
2022/09/18 08:59:17;;;;;;;4.45;0.80;;;;;;;;;;5078061;28;20059;-64
2022/09/18 09:01:55;;;;;;;1.70;0.60;;;;;;;;;;5073201;28;20056;-65
2022/09/18 09:04:28;;;;;;;3.33;0.80;;;;;;;;;;5072223;28;20033;-65
2022/09/18 09:07:08;;;;;;;2.83;0.80;;;;;;;;;;5072302;28;20551;-65
2022/09/18 09:09:36;;;;;;;10.57;1.00;;;;;;;;;;5072561;28;20119;-65
2022/09/18 09:12:08;;;;;;;7.03;0.80;;;;;;;;;;5075697;28;20033;-65
2022/09/18 09:14:53;;;;;;;3.50;0.75;;;;;;;;;;5061975;28;20044;-65
2022/09/18 09:17:37;;;;;;;6.50;1.10;;;;;;;;;;5072418;28;20513;-65
2022/09/18 09:20:19;;;;;;;4.10;0.82;;;;;;;;;;5081167;28;20036;-65
2022/09/18 09:22:56;;;;;;;5.28;0.80;;;;;;;;;;5068334;28;20045;-64
2022/09/18 09:25:25;;;;;;;4.68;0.82;;;;;;;;;;5073232;28;20258;-65
2022/09/18 09:28:00;;;;;;;3.17;0.60;;;;;;;;;;5071434;28;20064;-64
2022/09/18 09:30:29;;;;;;;4.38;0.90;;;;;;;;;;5070385;28;20455;-65
2022/09/18 09:32:57;;;;;;;5.45;0.98;;;;;;;;;;5072026;28;20044;-65
2022/09/18 09:35:36;;;;;;;7.32;0.90;;;;;;;;;;5073561;28;20045;-65
2022/09/18 09:38:13;;;;;;;2.75;0.80;;;;;;;;;;5073093;28;20048;-65
2022/09/18 09:40:43;;;;;;;3.60;0.80;;;;;;;;;;5072918;28;20040;-65
2022/09/18 09:43:46;;;;;;;5.13;0.90;;;;;;;;;;5072707;28;20459;-65
2022/09/18 09:46:16;;;;;;;3.63;0.70;;;;;;;;;;5032944;28;20048;-65
2022/09/18 09:49:08;;;;;;;4.40;0.80;;;;;;;;;;5068309;28;20044;-65
2022/09/18 09:51:40;;;;;;;5.18;0.75;;;;;;;;;;5066268;28;21760;-65
2022/09/18 09:54:09;;;;;;;2.35;0.60;;;;;;;;;;5067592;28;20432;-65
2022/09/18 09:56:38;;;;;;;3.95;0.93;;;;;;;;;;5077929;28;20098;-65
2022/09/18 09:59:04;;;;;;;4.80;0.70;;;;;;;;;;5071208;28;20043;-65
2022/09/18 10:01:56;;;;;;;5.90;1.10;;;;;;;;;;5072011;28;20070;-66
2022/09/18 10:04:31;;;;;;;5.28;0.63;;;;;;;;;;5074855;28;20036;-65
2022/09/18 10:06:58;;;;;;;2.25;0.60;;;;;;;;;;5073654;28;20052;-65
2022/09/18 10:09:36;;;;;;;2.67;0.68;;;;;;;;;;5069903;28;20118;-65
2022/09/18 10:12:06;;;;;;;3.83;0.70;;;;;;;;;;5075058;28;20040;-65
2022/09/18 10:14:34;;;;;;;3.10;0.93;;;;;;;;;;5072182;28;20091;-65
2022/09/18 10:17:01;;;;;;;4.93;0.98;;;;;;;;;;5071086;28;20044;-65
2022/09/18 10:19:35;;;;;;;1.85;0.77;;;;;;;;;;5072690;28;20040;-65
2022/09/18 10:22:03;;;;;;;3.78;0.80;;;;;;;;;;5078759;28;20043;-65
2022/09/18 10:24:38;;;;;;;5.53;0.70;;;;;;;;;;5069934;28;20110;-64
2022/09/18 10:27:11;;;;;;;3.17;0.60;;;;;;;;;;5071489;28;20102;-64
2022/09/18 10:29:37;;;;;;;5.45;0.82;;;;;;;;;;5070922;28;20048;-64
2022/09/18 10:32:05;;;;;;;2.65;0.80;;;;;;;;;;5069502;28;20044;-64
2022/09/18 10:34:49;;;;;;;6.28;0.70;;;;;;;;;;5077896;28;20044;-65
2022/09/18 10:37:16;;;;;;;5.50;0.90;;;;;;;;;;5069810;28;20119;-65
2022/09/18 10:39:52;;;;;;;4.47;1.00;;;;;;;;;;5067780;28;20041;-65
2022/09/18 10:42:21;;;;;;;2.88;0.70;;;;;;;;;;5068400;28;20033;-65
2022/09/18 10:44:55;;;;;;;5.63;0.90;;;;;;;;;;5067613;28;20509;-65
2022/09/18 10:47:24;;;;;;;4.00;0.52;;;;;;;;;;5069776;28;20067;-65
2022/09/18 10:49:53;;;;;;;4.53;0.90;;;;;;;;;;5071840;28;20036;-65
2022/09/18 10:52:27;;;;;;;3.45;0.90;;;;;;;;;;5068114;28;20519;-65
2022/09/18 10:54:57;;;;;;;2.20;0.80;;;;;;;;;;5068837;28;20064;-65
2022/09/18 10:57:31;;;;;;;2.97;0.90;;;;;;;;;;5068935;28;20044;-65
2022/09/18 10:59:57;;;;;;;5.93;0.73;;;;;;;;;;5067328;28;20036;-65
2022/09/18 11:02:25;;;;;;;7.88;1.10;;;;;;;;;;5071384;28;20398;-66
2022/09/18 11:04:52;;;;;;;3.85;1.00;;;;;;;;;;5075818;28;20090;-66
2022/09/18 11:07:18;;;;;;;6.13;0.98;;;;;;;;;;5070801;28;20072;-66
2022/09/18 11:09:45;;;;;;;3.83;0.90;;;;;;;;;;5077144;28;20252;-65
2022/09/18 11:12:16;;;;;;;8.77;1.25;;;;;;;;;;5071020;28;20104;-66
2022/09/18 11:14:45;;;;;;;3.15;0.90;;;;;;;;;;5078126;28;20186;-66
2022/09/18 11:17:18;;;;;;;3.38;0.90;;;;;;;;;;5069997;28;20044;-65
2022/09/18 11:19:49;;;;;;;4.45;1.05;;;;;;;;;;5072267;28;20525;-65
2022/09/18 11:22:33;;;;;;;3.95;1.10;;;;;;;;;;5070848;28;20036;-65
2022/09/18 11:25:07;;;;;;;5.85;1.52;;;;;;;;;;5071671;28;20404;-65
2022/09/18 11:27:56;;;;;;;6.65;1.10;;;;;;;;;;5071141;28;20039;-66
2022/09/18 11:30:24;;;;;;;5.82;1.15;;;;;;;;;;5068734;28;20473;-66
2022/09/18 11:32:52;;;;;;;3.22;0.93;;;;;;;;;;5076772;28;20059;-65
2022/09/18 11:35:19;;;;;;;4.57;0.80;;;;;;;;;;5073306;28;20085;-66
2022/09/18 11:37:45;;;;;;;4.18;1.05;;;;;;;;;;5081555;28;20098;-66
2022/09/18 11:40:14;;;;;;;7.13;1.25;;;;;;;;;;5068053;28;20036;-66
2022/09/18 11:42:42;;;;;;;3.58;0.82;;;;;;;;;;5078094;28;20512;-66
2022/09/18 11:45:22;;;;;;;6.65;0.90;;;;;;;;;;5070665;28;20032;-65
2022/09/18 11:47:53;;;;;;;5.20;1.23;;;;;;;;;;5075034;28;20040;-66
2022/09/18 11:50:20;;;;;;;3.42;1.13;;;;;;;;;;5080428;28;20062;-66
2022/09/18 11:52:53;;;;;;;3.38;1.10;;;;;;;;;;5077238;28;20043;-65
2022/09/18 11:55:31;;;;;;;5.38;0.98;;;;;;;;;;5074879;28;20041;-65
2022/09/18 11:58:13;;;;;;;4.75;1.50;;;;;;;;;;5073935;28;20076;-65
2022/09/18 12:00:47;;;;;;;6.47;1.17;;;;;;;;;;5075388;28;20358;-66
2022/09/18 12:03:25;;;;;;;6.60;1.00;;;;;;;;;;5070578;28;20493;-66
2022/09/18 12:06:03;;;;;;;5.72;1.05;;;;;;;;;;5068608;28;20040;-66
2022/09/18 12:08:38;;;;;;;5.25;0.95;;;;;;;;;;5074362;28;20048;-65
2022/09/18 12:11:04;;;;;;;6.82;1.10;;;;;;;;;;5073518;28;20179;-65
2022/09/18 12:13:45;;;;;;;10.70;1.10;;;;;;;;;;5073145;28;20052;-66
2022/09/18 12:16:17;;;;;;;5.13;1.00;;;;;;;;;;5072242;28;20044;-66
2022/09/18 12:19:09;;;;;;;3.97;1.00;;;;;;;;;;5077466;22;20045;-64
2022/09/18 12:21:54;;;;;;;5.63;1.20;;;;;;;;;;5051234;28;20087;-63
2022/09/18 12:24:20;;;;;;;7.97;1.35;;;;;;;;;;5040735;28;20132;-63
2022/09/18 12:26:55;;;;;;;7.68;1.15;;;;;;;;;;5073137;28;20127;-64
2022/09/18 12:29:40;;;;;;;6.57;1.08;;;;;;;;;;5065349;28;20045;-64
2022/09/18 12:32:13;;;;;;;6.72;1.10;;;;;;;;;;5057278;28;20036;-64
2022/09/18 12:34:46;;;;;;;5.57;1.13;;;;;;;;;;5043744;28;20407;-64
2022/09/18 12:37:12;;;;;;;6.38;1.33;;;;;;;;;;5049637;28;20041;-64
2022/09/18 12:39:50;;;;;;;7.40;1.42;;;;;;;;;;5053746;28;20537;-64
2022/09/18 12:42:25;;;;;;;7.90;1.17;;;;;;;;;;5054298;28;20041;-64
2022/09/18 12:45:03;;;;;;;8.57;1.30;;;;;;;;;;5053830;28;20462;-64
2022/09/18 12:47:46;;;;;;;8.68;1.42;;;;;;;;;;5050020;28;20045;-64
2022/09/18 12:50:22;;;;;;;7.65;1.00;;;;;;;;;;5046102;28;20388;-64
2022/09/18 12:53:07;;;;;;;7.10;1.10;;;;;;;;;;5047691;28;20045;-65
2022/09/18 12:55:59;;;;;;;8.13;1.30;;;;;;;;;;5046300;28;20041;-64
2022/09/18 12:58:28;;;;;;;7.68;1.40;;;;;;;;;;5046593;28;20124;-64
2022/09/18 13:00:55;;;;;;;9.13;1.23;;;;;;;;;;5047686;28;20483;-65
2022/09/18 13:03:21;;;;;;;8.23;1.10;;;;;;;;;;5053164;28;20045;-65
2022/09/18 13:05:54;;;;;;;10.77;1.50;;;;;;;;;;5056271;28;20089;-65
2022/09/18 13:08:40;;;;;;;5.50;1.30;;;;;;;;;;5065122;28;20040;-65
2022/09/18 13:11:11;;;;;;;6.03;1.17;;;;;;;;;;5073552;28;20090;-65
2022/09/18 13:13:43;;;;;;;6.03;1.15;;;;;;;;;;5049035;28;20056;-65
2022/09/18 13:16:12;;;;;;;10.60;1.88;;;;;;;;;;5054417;28;20036;-65
2022/09/18 13:18:43;;;;;;;6.25;1.17;;;;;;;;;;5064381;28;20143;-65
2022/09/18 13:21:23;;;;;;;8.50;1.08;;;;;;;;;;5072835;28;20043;-65
2022/09/18 13:23:51;;;;;;;9.85;1.40;;;;;;;;;;5068522;28;20044;-65
2022/09/18 13:26:17;;;;;;;6.55;1.92;;;;;;;;;;5058438;28;20495;-65
2022/09/18 13:28:44;;;;;;;5.43;1.20;;;;;;;;;;5041427;28;20051;-65
2022/09/18 13:31:26;;;;;;;6.03;1.05;;;;;;;;;;5043124;28;20118;-65
2022/09/18 13:34:05;;;;;;;7.28;1.27;;;;;;;;;;5055223;28;20037;-65
2022/09/18 13:36:36;;;;;;;8.30;1.38;;;;;;;;;;5043133;28;20406;-65
2022/09/18 13:39:04;;;;;;;6.28;1.35;;;;;;;;;;5049900;28;20037;-65
2022/09/18 13:41:40;;;;;;;7.53;1.17;;;;;;;;;;5051040;28;20132;-64
2022/09/18 13:44:15;;;;;;;6.28;1.30;;;;;;;;;;5036082;28;20380;-65
2022/09/18 13:46:43;;;;;;;8.55;1.15;;;;;;;;;;5040357;28;20124;-65
2022/09/18 13:49:17;;;;;;;6.65;0.90;;;;;;;;;;5044406;28;20397;-65
2022/09/18 13:51:42;;;;;;;4.85;0.90;;;;;;;;;;5049294;28;20041;-65
2022/09/18 13:54:11;;;;;;;7.00;1.13;;;;;;;;;;5060837;28;20097;-65
2022/09/18 13:56:56;;;;;;;5.25;1.23;;;;;;;;;;5051116;28;20037;-65
2022/09/18 13:59:42;;;;;;;6.03;1.38;;;;;;;;;;5047589;28;20040;-65
2022/09/18 14:02:20;;;;;;;4.32;0.90;;;;;;;;;;5046700;28;20564;-65
2022/09/18 14:04:48;;;;;;;6.55;0.90;;;;;;;;;;5051224;28;20047;-65
2022/09/18 14:07:18;;;;;;;7.38;1.10;;;;;;;;;;5052260;28;20068;-66
2022/09/18 14:09:58;;;;;;;4.68;1.02;;;;;;;;;;5042070;28;20080;-65
2022/09/18 14:12:24;;;;;;;6.75;1.00;;;;;;;;;;5040207;28;20041;-62
2022/09/18 14:15:14;;;;;;;5.65;1.00;;;;;;;;;;5040209;28;20041;-62
2022/09/18 14:17:40;;;;;;;3.17;0.85;;;;;;;;;;5028994;28;20558;-62
2022/09/18 14:20:17;;;;;;;6.32;0.82;;;;;;;;;;5044747;28;20100;-63
2022/09/18 14:22:43;;;;;;;5.68;1.00;;;;;;;;;;5024794;28;20056;-63
2022/09/18 14:25:10;;;;;;;5.05;1.02;;;;;;;;;;5040087;28;20041;-63
2022/09/18 14:27:39;;;;;;;4.95;1.13;;;;;;;;;;5045598;28;20061;-62
2022/09/18 14:30:14;;;;;;;5.43;1.35;;;;;;;;;;5043308;28;20034;-63
2022/09/18 14:32:42;;;;;;;8.48;0.82;;;;;;;;;;5034255;28;20122;-63
2022/09/18 14:35:18;;;;;;;4.32;1.33;;;;;;;;;;5047454;28;20092;-62
2022/09/18 14:37:45;;;;;;;6.88;1.67;;;;;;;;;;5052050;28;20051;-64
2022/09/18 14:40:19;;;;;;;3.72;0.93;;;;;;;;;;5058631;28;20493;-64
2022/09/18 14:42:46;;;;;;;7.90;0.90;;;;;;;;;;5056629;28;20100;-64
2022/09/18 14:45:12;;;;;;;4.55;0.98;;;;;;;;;;5058969;28;20041;-64
2022/09/18 14:47:39;;;;;;;5.78;1.25;;;;;;;;;;5039603;28;20072;-64
2022/09/18 14:50:20;;;;;;;6.95;1.33;;;;;;;;;;5033262;28;20569;-64
2022/09/18 14:52:46;;;;;;;5.57;0.90;;;;;;;;;;5039310;28;20405;-64
2022/09/18 14:55:18;;;;;;;4.40;0.82;;;;;;;;;;5041634;28;20563;-64
2022/09/18 14:57:46;;;;;;;6.32;1.20;;;;;;;;;;5038060;28;20069;-64